createdAt,value
2022-08-17T00:00:33.295Z,59.27
2022-08-17T00:05:42.200Z,62.80
2022-08-17T00:10:45.840Z,62.37
2022-08-17T00:15:48.727Z,59.19
2022-08-17T00:20:51.471Z,60.61
2022-08-17T00:25:55.100Z,57.60
2022-08-17T00:30:58.038Z,59.20
2022-08-17T00:36:01.740Z,57.44
2022-08-17T00:41:13.346Z,55.55
2022-08-17T00:46:29.635Z,59.88
2022-08-17T00:51:35.427Z,58.48
2022-08-17T00:56:44.686Z,59.95
2022-08-17T01:01:49.400Z,61.24
2022-08-17T01:06:53.102Z,60.69
2022-08-17T01:11:55.559Z,60.46
2022-08-17T01:17:00.273Z,61.82
2022-08-17T01:22:11.859Z,61.93
2022-08-17T01:27:16.315Z,61.59
2022-08-17T01:32:21.150Z,58.84
2022-08-17T01:37:32.586Z,58.98
2022-08-17T01:43:01.084Z,60.89
2022-08-17T01:48:03.888Z,56.77
2022-08-17T01:53:15.840Z,59.20
2022-08-17T01:58:19.293Z,60.69
2022-08-17T02:03:24.616Z,59.87
2022-08-17T02:08:37.147Z,58.72
2022-08-17T02:13:43.805Z,57.41
2022-08-17T02:18:46.676Z,62.16
2022-08-17T02:23:50.166Z,61.57
2022-08-17T02:28:53.617Z,58.17
2022-08-17T02:34:00.535Z,60.20
2022-08-17T02:39:09.708Z,57.62
2022-08-17T02:44:12.465Z,62.54
2022-08-17T02:49:15.851Z,59.40
2022-08-17T02:54:40.267Z,59.92
2022-08-17T02:59:43.315Z,61.01
2022-08-17T03:04:50.878Z,59.17
2022-08-17T03:09:54.039Z,58.42
2022-08-17T03:14:56.564Z,56.88
2022-08-17T03:19:59.462Z,60.95
2022-08-17T03:25:02.001Z,63.33
2022-08-17T03:30:07.583Z,64.39
2022-08-17T03:35:12.272Z,60.41
2022-08-17T03:40:15.805Z,61.99
2022-08-17T03:45:58.778Z,62.65
2022-08-17T03:51:20.200Z,65.04
2022-08-17T03:56:41.369Z,63.36
2022-08-17T04:01:46.083Z,61.54
2022-08-17T04:06:48.614Z,59.91
2022-08-17T04:11:51.046Z,65.34
2022-08-17T04:16:53.641Z,66.16
2022-08-17T04:21:57.884Z,63.35
2022-08-17T04:27:01.724Z,58.34
2022-08-17T04:32:04.601Z,64.79
2022-08-17T04:37:08.758Z,62.64
2022-08-17T04:42:17.299Z,66.38
2022-08-17T04:47:19.412Z,61.67
2022-08-17T04:52:32.289Z,64.68
2022-08-17T04:57:45.258Z,66.99
2022-08-17T05:02:50.101Z,66.51
2022-08-17T05:07:54.830Z,63.65
2022-08-17T05:13:01.508Z,65.97
2022-08-17T05:18:04.900Z,63.76
2022-08-17T05:23:10.639Z,62.19
2022-08-17T05:28:14.260Z,59.46
2022-08-17T05:33:21.922Z,58.75
2022-08-17T05:38:26.957Z,58.77
2022-08-17T05:43:32.332Z,59.03
2022-08-17T05:48:41.581Z,60.76
2022-08-17T05:53:54.012Z,58.36
2022-08-17T05:58:56.595Z,58.86
2022-08-17T06:04:31.400Z,59.71
2022-08-17T06:09:37.103Z,61.09
2022-08-17T06:14:51.484Z,61.93
2022-08-17T06:20:03.707Z,59.50
2022-08-17T06:25:16.314Z,58.22
2022-08-17T06:30:26.408Z,56.40
2022-08-17T06:36:09.337Z,56.51
2022-08-17T06:41:29.142Z,55.26
2022-08-17T06:46:43.498Z,56.24
2022-08-17T06:51:58.205Z,57.44
2022-08-17T06:57:10.800Z,58.47
2022-08-17T07:02:19.878Z,57.50
2022-08-17T07:07:53.588Z,54.55
2022-08-17T07:13:02.836Z,53.12
2022-08-17T07:18:05.411Z,55.43
2022-08-17T07:23:19.418Z,54.33
2022-08-17T07:28:26.263Z,54.25
2022-08-17T07:33:31.922Z,51.23
2022-08-17T07:38:35.679Z,50.20
2022-08-17T07:43:40.946Z,49.14
2022-08-17T07:48:46.564Z,47.71
2022-08-17T07:53:49.650Z,50.67
2022-08-17T07:59:11.229Z,51.77
2022-08-17T08:04:43.218Z,51.88
2022-08-17T08:10:01.489Z,52.05
2022-08-17T08:15:19.560Z,50.76
2022-08-17T08:21:00.448Z,48.38
2022-08-17T08:26:25.353Z,48.17
2022-08-17T08:31:58.168Z,49.34
2022-08-17T08:37:15.371Z,50.27
2022-08-17T08:42:32.986Z,53.27
2022-08-17T08:48:12.737Z,51.83
2022-08-17T08:53:32.193Z,52.08
2022-08-17T08:58:43.651Z,52.75
2022-08-17T09:03:54.916Z,54.37
2022-08-17T09:09:30.356Z,54.69
2022-08-17T09:14:54.552Z,54.36
2022-08-17T09:20:05.211Z,55.02
2022-08-17T09:25:10.178Z,57.75
2022-08-17T09:30:14.041Z,64.21
2022-08-17T09:35:37.130Z,64.14
2022-08-17T09:41:32.380Z,63.15
2022-08-17T09:46:53.770Z,64.74
2022-08-17T09:52:20.977Z,62.79
2022-08-17T09:57:42.457Z,67.17
2022-08-17T10:03:03.204Z,69.42
2022-08-17T10:08:27.770Z,74.24
2022-08-17T10:13:36.169Z,77.82
2022-08-17T10:19:09.973Z,72.32
2022-08-17T10:25:21.857Z,70.51
2022-08-17T10:30:16.089Z,69.52
2022-08-17T10:35:25.940Z,73.94
2022-08-17T10:40:50.399Z,76.15
2022-08-17T10:46:30.282Z,74.29
2022-08-17T10:51:38.128Z,70.10
2022-08-17T10:56:51.027Z,66.56
2022-08-17T11:02:19.568Z,65.48
2022-08-17T11:08:07.056Z,67.26
2022-08-17T11:13:12.217Z,75.05
2022-08-17T11:18:26.438Z,84.81
2022-08-17T11:24:13.004Z,84.79
2022-08-17T11:30:01.881Z,80.67
2022-08-17T11:35:23.342Z,77.96
2022-08-17T11:40:52.366Z,71.99
2022-08-17T11:46:14.814Z,76.56
2022-08-17T11:51:42.095Z,70.85
2022-08-17T11:56:50.536Z,73.16
2022-08-17T12:01:56.832Z,77.54
2022-08-17T12:07:05.404Z,74.50
2022-08-17T12:12:14.430Z,67.01
2022-08-17T12:17:29.582Z,65.46
2022-08-17T12:23:01.242Z,64.99
2022-08-17T12:28:20.004Z,70.21
2022-08-17T12:33:28.003Z,70.10
2022-08-17T12:38:34.753Z,69.54
2022-08-17T12:43:37.653Z,67.17
2022-08-17T12:48:40.192Z,71.37
2022-08-17T12:54:03.047Z,71.57
2022-08-17T12:59:07.232Z,62.79
2022-08-17T13:04:15.667Z,56.98
2022-08-17T13:09:33.530Z,49.94
2022-08-17T13:14:38.369Z,48.68
2022-08-17T13:19:49.815Z,46.35
2022-08-17T13:24:58.340Z,44.25
2022-08-17T13:30:11.692Z,43.94
2022-08-17T13:35:39.464Z,41.84
2022-08-17T13:40:50.342Z,38.44
2022-08-17T13:45:53.381Z,40.56
2022-08-17T13:50:55.382Z,40.18
2022-08-17T13:56:31.702Z,40.97
2022-08-17T14:01:39.269Z,38.34
2022-08-17T14:07:10.670Z,33.97
2022-08-17T14:12:17.446Z,37.62
2022-08-17T14:17:20.173Z,34.64
2022-08-17T14:22:32.244Z,36.42
2022-08-17T14:27:51.945Z,41.25
2022-08-17T14:32:56.500Z,43.33
2022-08-17T14:37:58.959Z,46.30
2022-08-17T14:43:01.515Z,47.38
2022-08-17T14:48:07.799Z,44.58
2022-08-17T14:53:12.367Z,45.13
2022-08-17T14:58:14.850Z,47.05
2022-08-17T15:03:18.750Z,41.85
2022-08-17T15:08:22.066Z,47.57
2022-08-17T15:13:27.301Z,49.91
2022-08-17T15:18:33.084Z,50.64
2022-08-17T15:23:36.299Z,43.83
2022-08-17T15:28:38.887Z,39.24
2022-08-17T15:33:41.868Z,39.70
2022-08-17T15:38:44.578Z,47.32
2022-08-17T15:43:50.230Z,49.09
2022-08-17T15:49:00.143Z,49.34
2022-08-17T15:54:18.723Z,50.50
2022-08-17T15:59:25.181Z,51.80
2022-08-17T16:04:31.031Z,51.96
2022-08-17T16:09:35.059Z,52.57
2022-08-17T16:14:37.825Z,53.18
2022-08-17T16:19:41.687Z,52.95
2022-08-17T16:24:56.753Z,53.72
2022-08-17T16:30:01.078Z,53.87
2022-08-17T16:35:07.408Z,53.86
2022-08-17T16:40:11.654Z,53.30
2022-08-17T16:45:18.630Z,53.46
2022-08-17T16:50:23.579Z,54.27
2022-08-17T16:55:26.396Z,54.05
2022-08-17T17:00:30.127Z,54.66
2022-08-17T17:05:58.106Z,54.88
2022-08-17T17:11:09.289Z,54.33
2022-08-17T17:16:34.661Z,54.25
2022-08-17T17:22:00.114Z,52.89
2022-08-17T17:27:39.148Z,52.46
2022-08-17T17:32:56.010Z,53.78
2022-08-17T17:38:03.513Z,54.28
2022-08-17T17:43:36.872Z,54.08
2022-08-17T17:48:34.227Z,53.42
2022-08-17T17:53:44.967Z,55.00
2022-08-17T17:59:12.534Z,56.70
2022-08-17T18:04:41.442Z,57.01
2022-08-17T18:10:02.719Z,56.38
2022-08-17T18:15:08.289Z,54.78
2022-08-17T18:20:10.929Z,57.16
2022-08-17T18:25:39.570Z,56.75
2022-08-17T18:30:42.228Z,57.38
2022-08-17T18:35:58.562Z,57.32
2022-08-17T18:41:30.533Z,57.52
2022-08-17T18:46:37.945Z,57.78
2022-08-17T18:51:43.417Z,57.38
2022-08-17T18:56:59.898Z,57.02
2022-08-17T19:02:36.042Z,57.10
2022-08-17T19:07:50.593Z,57.33
2022-08-17T19:13:00.810Z,57.11
2022-08-17T19:18:15.679Z,57.30
2022-08-17T19:23:58.998Z,57.64
2022-08-17T19:29:22.193Z,56.27
2022-08-17T19:34:30.329Z,57.91
2022-08-17T19:40:09.408Z,58.39
2022-08-17T19:45:12.236Z,59.14
2022-08-17T19:50:45.937Z,58.66
2022-08-17T19:56:11.519Z,58.10
2022-08-17T20:01:40.997Z,60.88
2022-08-17T20:06:49.399Z,62.35
2022-08-17T20:11:58.948Z,61.47
2022-08-17T20:17:04.654Z,60.21
2022-08-17T20:22:18.145Z,61.15
2022-08-17T20:27:31.755Z,61.46
2022-08-17T20:32:55.298Z,61.22
2022-08-17T20:38:02.768Z,60.72
2022-08-17T20:43:29.627Z,61.57
2022-08-17T20:48:48.369Z,61.86
2022-08-17T20:53:51.468Z,64.35
2022-08-17T20:58:53.931Z,65.77
2022-08-17T21:03:57.447Z,65.45
2022-08-17T21:09:28.633Z,64.04
2022-08-17T21:14:34.202Z,62.93
2022-08-17T21:20:00.227Z,62.33
2022-08-17T21:25:03.049Z,62.75
2022-08-17T21:30:21.093Z,62.47
2022-08-17T21:35:44.683Z,61.78
2022-08-17T21:40:52.820Z,62.05
2022-08-17T21:46:00.638Z,61.35
2022-08-17T21:51:10.537Z,63.14
2022-08-17T21:56:20.965Z,64.72
2022-08-17T22:01:34.584Z,65.60
2022-08-17T22:06:55.834Z,69.16
2022-08-17T22:12:01.387Z,71.02
2022-08-17T22:17:17.168Z,71.04
2022-08-17T22:22:58.531Z,74.72
2022-08-17T22:28:04.340Z,78.47
2022-08-17T22:33:38.101Z,81.99
2022-08-17T22:38:43.624Z,83.84
2022-08-17T22:43:46.421Z,83.13
2022-08-17T22:48:59.947Z,82.87
2022-08-17T22:54:35.093Z,81.86
2022-08-17T22:59:43.821Z,83.35
2022-08-17T23:04:59.362Z,85.66
2022-08-17T23:10:06.556Z,89.35
2022-08-17T23:15:17.731Z,90.51
2022-08-17T23:20:20.695Z,92.70
2022-08-17T23:25:28.168Z,92.80
2022-08-17T23:30:33.685Z,93.88
2022-08-17T23:35:39.721Z,93.89
2022-08-17T23:40:43.248Z,93.18
2022-08-17T23:45:46.141Z,93.57
2022-08-17T23:50:51.728Z,94.96
2022-08-17T23:56:03.894Z,94.01
